createdAt,value
2018-11-29T00:00:40.564Z,31.53
2018-11-29T00:03:14.330Z,33.63
2018-11-29T00:05:54.148Z,33.43
2018-11-29T00:08:27.676Z,34.60
2018-11-29T00:11:00.974Z,34.93
2018-11-29T00:13:34.604Z,34.37
2018-11-29T00:16:08.148Z,34.73
2018-11-29T00:18:41.646Z,31.90
2018-11-29T00:21:15.270Z,35.70
2018-11-29T00:23:48.747Z,32.73
2018-11-29T00:26:22.281Z,34.10
2018-11-29T00:28:55.842Z,33.93
2018-11-29T00:31:29.362Z,36.07
2018-11-29T00:34:02.887Z,35.07
2018-11-29T00:36:36.417Z,35.73
2018-11-29T00:39:09.861Z,32.67
2018-11-29T00:41:43.496Z,36.70
2018-11-29T00:44:17.152Z,37.47
2018-11-29T00:46:50.815Z,37.70
2018-11-29T00:49:24.535Z,35.23
2018-11-29T00:51:58.086Z,35.23
2018-11-29T00:54:31.399Z,34.47
2018-11-29T00:57:05.166Z,36.03
2018-11-29T00:59:38.805Z,37.13
2018-11-29T01:02:12.370Z,33.17
2018-11-29T01:04:45.765Z,36.73
2018-11-29T01:07:19.473Z,39.67
2018-11-29T01:09:53.078Z,36.63
2018-11-29T01:12:26.670Z,39.50
2018-11-29T01:15:00.207Z,36.50
2018-11-29T01:17:33.699Z,37.53
2018-11-29T01:20:09.149Z,37.90
2018-11-29T01:22:42.712Z,40.00
2018-11-29T01:25:16.685Z,35.60
2018-11-29T01:27:50.277Z,36.50
2018-11-29T01:30:23.775Z,36.37
2018-11-29T01:32:57.262Z,39.20
2018-11-29T01:35:30.923Z,41.37
2018-11-29T01:38:04.370Z,38.70
2018-11-29T01:40:37.869Z,38.30
2018-11-29T01:43:11.467Z,36.50
2018-11-29T01:45:45.156Z,37.30
2018-11-29T01:48:18.746Z,34.80
2018-11-29T01:50:53.075Z,39.17
2018-11-29T01:53:26.582Z,36.47
2018-11-29T01:56:00.127Z,38.10
2018-11-29T01:58:33.751Z,38.37
2018-11-29T02:01:07.386Z,36.20
2018-11-29T02:03:40.885Z,37.80
2018-11-29T02:06:14.263Z,36.30
2018-11-29T02:08:47.786Z,36.33
2018-11-29T02:11:21.588Z,36.07
2018-11-29T02:13:55.130Z,35.57
2018-11-29T02:16:28.679Z,36.40
2018-11-29T02:19:02.174Z,38.50
2018-11-29T02:21:35.688Z,36.57
2018-11-29T02:24:09.156Z,36.20
2018-11-29T02:26:42.723Z,35.20
2018-11-29T02:29:16.301Z,38.20
2018-11-29T02:31:49.820Z,37.67
2018-11-29T02:34:23.298Z,34.43
2018-11-29T02:36:57.026Z,37.37
2018-11-29T02:39:30.595Z,36.70
2018-11-29T02:42:04.443Z,36.80
2018-11-29T02:44:38.141Z,36.37
2018-11-29T02:47:11.634Z,38.83
2018-11-29T02:49:45.105Z,35.90
2018-11-29T02:52:18.591Z,38.00
2018-11-29T02:54:52.063Z,38.27
2018-11-29T02:57:25.425Z,42.40
2018-11-29T02:59:58.751Z,36.93
2018-11-29T03:02:32.338Z,39.63
2018-11-29T03:05:06.029Z,35.00
2018-11-29T03:07:39.642Z,38.83
2018-11-29T03:10:13.810Z,36.37
2018-11-29T03:12:47.415Z,35.27
2018-11-29T03:15:20.901Z,35.27
2018-11-29T03:17:54.380Z,38.80
2018-11-29T03:20:27.902Z,36.10
2018-11-29T03:23:01.365Z,38.10
2018-11-29T03:25:34.891Z,35.33
2018-11-29T03:28:08.426Z,38.50
2018-11-29T03:30:41.968Z,37.83
2018-11-29T03:33:15.340Z,38.17
2018-11-29T03:35:48.787Z,37.70
2018-11-29T03:38:22.141Z,34.30
2018-11-29T03:40:55.782Z,36.53
2018-11-29T03:43:29.213Z,36.27
2018-11-29T03:46:02.663Z,36.40
2018-11-29T03:48:36.016Z,34.30
2018-11-29T03:51:09.406Z,36.27
2018-11-29T03:53:42.854Z,34.77
2018-11-29T03:56:16.393Z,39.67
2018-11-29T03:58:50.021Z,36.07
2018-11-29T04:01:23.367Z,36.83
2018-11-29T04:03:56.752Z,34.47
2018-11-29T04:06:30.357Z,37.80
2018-11-29T04:09:07.967Z,40.80
2018-11-29T04:11:41.342Z,40.10
2018-11-29T04:14:14.794Z,38.07
2018-11-29T04:16:48.337Z,38.83
2018-11-29T04:19:22.009Z,38.80
2018-11-29T04:21:55.848Z,39.47
2018-11-29T04:24:29.538Z,38.90
2018-11-29T04:27:03.002Z,36.90
2018-11-29T04:29:36.563Z,40.20
2018-11-29T04:32:09.946Z,36.67
2018-11-29T04:34:43.443Z,38.73
2018-11-29T04:37:16.906Z,39.90
2018-11-29T04:39:50.360Z,42.33
2018-11-29T04:42:24.122Z,40.60
2018-11-29T04:44:57.451Z,37.50
2018-11-29T04:47:30.993Z,39.63
2018-11-29T04:50:04.826Z,38.20
2018-11-29T04:52:38.349Z,43.20
2018-11-29T04:55:11.901Z,43.30
2018-11-29T04:57:45.439Z,40.00
2018-11-29T05:00:19.155Z,38.40
2018-11-29T05:02:52.553Z,45.47
2018-11-29T05:05:25.975Z,41.60
2018-11-29T05:07:59.500Z,41.77
2018-11-29T05:10:33.134Z,41.07
2018-11-29T05:13:06.725Z,50.20
2018-11-29T05:15:40.959Z,44.60
2018-11-29T05:18:14.387Z,41.40
2018-11-29T05:20:48.060Z,44.83
2018-11-29T05:23:21.423Z,44.03
2018-11-29T05:25:54.852Z,41.87
2018-11-29T05:28:28.158Z,46.53
2018-11-29T05:31:01.733Z,44.53
2018-11-29T05:33:35.086Z,43.70
2018-11-29T05:36:08.650Z,44.73
2018-11-29T05:38:42.331Z,44.17
2018-11-29T05:41:15.783Z,46.23
2018-11-29T05:43:49.318Z,42.67
2018-11-29T05:46:22.725Z,42.97
2018-11-29T05:48:56.421Z,44.60
2018-11-29T05:51:30.065Z,48.97
2018-11-29T05:54:03.798Z,45.77
2018-11-29T05:56:37.429Z,46.27
2018-11-29T05:59:10.768Z,42.03
2018-11-29T06:01:44.858Z,43.40
2018-11-29T06:04:18.594Z,45.87
2018-11-29T06:06:52.114Z,48.03
2018-11-29T06:09:25.435Z,48.87
2018-11-29T06:11:59.181Z,44.37
2018-11-29T06:14:32.704Z,47.27
2018-11-29T06:17:06.103Z,50.53
2018-11-29T06:19:39.496Z,46.13
2018-11-29T06:22:13.047Z,46.60
2018-11-29T06:24:46.530Z,45.30
2018-11-29T06:27:20.060Z,50.93
2018-11-29T06:29:53.552Z,49.67
2018-11-29T06:32:28.152Z,50.87
2018-11-29T06:35:01.625Z,47.67
2018-11-29T06:37:35.214Z,51.37
2018-11-29T06:40:09.921Z,47.00
2018-11-29T06:42:43.415Z,46.97
2018-11-29T06:45:19.868Z,42.87
2018-11-29T06:47:53.285Z,53.60
2018-11-29T06:50:26.856Z,45.37
2018-11-29T06:53:00.425Z,51.37
2018-11-29T06:55:34.063Z,48.03
2018-11-29T06:58:07.686Z,50.77
2018-11-29T07:00:41.282Z,50.80
2018-11-29T07:03:14.706Z,49.10
2018-11-29T07:05:48.054Z,47.83
2018-11-29T07:08:21.636Z,51.67
2018-11-29T07:10:55.049Z,46.63
2018-11-29T07:13:28.492Z,52.47
2018-11-29T07:16:01.926Z,43.13
2018-11-29T07:18:35.318Z,51.43
2018-11-29T07:21:19.311Z,49.97
2018-11-29T07:23:53.014Z,51.50
2018-11-29T07:26:26.495Z,49.40
2018-11-29T07:28:59.978Z,52.23
2018-11-29T07:31:33.576Z,47.90
2018-11-29T07:34:06.931Z,50.47
2018-11-29T07:36:40.576Z,50.60
2018-11-29T07:39:14.033Z,49.43
2018-11-29T07:41:47.532Z,50.77
2018-11-29T07:44:22.216Z,47.63
2018-11-29T07:46:55.865Z,50.37
2018-11-29T07:49:29.455Z,47.60
2018-11-29T07:52:02.854Z,45.23
2018-11-29T07:54:36.362Z,45.67
2018-11-29T07:57:09.962Z,49.43
2018-11-29T07:59:43.778Z,52.63
2018-11-29T08:02:17.302Z,53.50
2018-11-29T08:04:50.670Z,49.77
2018-11-29T08:07:24.088Z,50.30
2018-11-29T08:09:57.541Z,46.40
2018-11-29T08:12:31.085Z,43.93
2018-11-29T08:15:06.228Z,45.73
2018-11-29T08:17:39.740Z,55.17
2018-11-29T08:20:14.795Z,49.93
2018-11-29T08:22:48.314Z,46.90
2018-11-29T08:25:21.869Z,45.57
2018-11-29T08:27:55.264Z,45.43
2018-11-29T08:30:29.010Z,49.77
2018-11-29T08:33:02.519Z,49.17
2018-11-29T08:35:36.085Z,46.37
2018-11-29T08:38:09.568Z,52.97
2018-11-29T08:40:43.029Z,43.77
2018-11-29T08:43:16.487Z,50.93
2018-11-29T08:45:50.029Z,44.40
2018-11-29T08:48:23.475Z,48.43
2018-11-29T08:50:57.132Z,48.40
2018-11-29T08:53:30.690Z,47.03
2018-11-29T08:56:05.367Z,48.17
2018-11-29T08:58:38.914Z,43.23
2018-11-29T09:01:12.414Z,44.20
2018-11-29T09:03:45.985Z,46.00
2018-11-29T09:06:19.407Z,49.23
2018-11-29T09:08:53.067Z,43.27
2018-11-29T09:11:26.403Z,40.33
2018-11-29T09:14:00.037Z,49.00
2018-11-29T09:16:33.547Z,42.10
2018-11-29T09:19:07.060Z,41.43
2018-11-29T09:21:40.561Z,47.23
2018-11-29T09:24:14.029Z,47.80
2018-11-29T09:26:47.643Z,44.27
2018-11-29T09:29:21.092Z,45.20
2018-11-29T09:31:54.657Z,43.00
2018-11-29T09:34:28.121Z,44.03
2018-11-29T09:37:01.534Z,41.80
2018-11-29T09:39:35.194Z,43.13
2018-11-29T09:42:08.972Z,40.27
2018-11-29T09:44:42.613Z,44.97
2018-11-29T09:47:16.209Z,42.03
2018-11-29T09:49:50.083Z,42.33
2018-11-29T09:52:23.654Z,40.73
2018-11-29T09:54:57.145Z,41.47
2018-11-29T09:57:30.739Z,40.67
2018-11-29T10:00:08.858Z,41.67
2018-11-29T10:02:44.172Z,43.57
2018-11-29T10:05:17.534Z,45.63
2018-11-29T10:07:51.027Z,41.90
2018-11-29T10:10:24.511Z,41.07
2018-11-29T10:12:58.050Z,43.33
2018-11-29T10:15:31.563Z,38.87
2018-11-29T10:18:05.695Z,38.63
2018-11-29T10:20:40.026Z,42.47
2018-11-29T10:23:13.637Z,39.77
2018-11-29T10:25:47.022Z,42.40
2018-11-29T10:28:20.481Z,44.00
2018-11-29T10:30:56.206Z,42.87
2018-11-29T10:33:29.629Z,41.60
2018-11-29T10:36:03.432Z,39.03
2018-11-29T10:38:36.827Z,43.30
2018-11-29T10:41:10.473Z,40.47
2018-11-29T10:43:45.159Z,38.43
2018-11-29T10:46:18.759Z,39.13
2018-11-29T10:48:52.283Z,37.57
2018-11-29T10:51:25.770Z,40.47
2018-11-29T10:53:59.174Z,37.93
2018-11-29T10:56:32.643Z,36.90
2018-11-29T10:59:06.185Z,39.63
2018-11-29T11:01:43.883Z,39.97
2018-11-29T11:04:18.086Z,36.07
2018-11-29T11:06:51.582Z,39.53
2018-11-29T11:09:25.133Z,41.10
2018-11-29T11:11:59.295Z,42.87
2018-11-29T11:14:32.845Z,40.17
2018-11-29T11:17:06.274Z,36.23
2018-11-29T11:19:39.756Z,38.27
2018-11-29T11:22:13.397Z,35.40
2018-11-29T11:24:46.926Z,39.27
2018-11-29T11:27:20.669Z,40.40
2018-11-29T11:29:54.268Z,32.00
2018-11-29T11:32:27.830Z,36.00
2018-11-29T11:35:01.298Z,35.37
2018-11-29T11:37:35.093Z,36.10
2018-11-29T11:40:11.993Z,36.57
2018-11-29T11:42:45.890Z,35.20
2018-11-29T11:45:19.872Z,36.07
2018-11-29T11:47:53.314Z,35.53
2018-11-29T11:50:26.933Z,33.93
2018-11-29T11:53:00.489Z,36.70
2018-11-29T11:55:34.475Z,36.42
2018-11-29T11:58:08.306Z,37.00
2018-11-29T12:00:42.073Z,39.77
2018-11-29T12:03:16.018Z,36.60
2018-11-29T12:05:49.685Z,33.43
2018-11-29T12:08:23.193Z,41.00
2018-11-29T12:10:56.813Z,37.50
2018-11-29T12:13:30.379Z,33.10
2018-11-29T12:16:04.102Z,36.37
2018-11-29T12:18:37.533Z,39.13
2018-11-29T12:21:11.107Z,33.53
2018-11-29T12:23:44.706Z,34.78
2018-11-29T12:26:18.272Z,37.53
2018-11-29T12:28:51.759Z,36.33
2018-11-29T12:31:25.373Z,40.53
2018-11-29T12:33:58.947Z,38.70
2018-11-29T12:36:32.448Z,39.37
2018-11-29T12:39:08.321Z,40.20
2018-11-29T12:41:41.955Z,37.60
2018-11-29T12:44:15.323Z,36.30
2018-11-29T12:46:48.856Z,37.00
2018-11-29T12:49:22.348Z,36.80
2018-11-29T12:54:35.553Z,37.93
2018-11-29T12:57:09.089Z,33.30
2018-11-29T12:59:42.796Z,35.37
2018-11-29T13:02:16.442Z,36.70
2018-11-29T13:04:50.069Z,36.87
2018-11-29T13:07:23.679Z,36.20
2018-11-29T13:09:57.127Z,36.80
2018-11-29T13:12:30.713Z,38.05
2018-11-29T13:15:08.861Z,35.00
2018-11-29T13:17:42.587Z,34.60
2018-11-29T13:20:16.726Z,37.00
2018-11-29T13:22:50.282Z,34.43
2018-11-29T13:25:25.229Z,34.47
2018-11-29T13:27:58.727Z,36.80
2018-11-29T13:30:32.390Z,34.17
2018-11-29T13:33:07.766Z,35.53
2018-11-29T13:35:41.385Z,37.73
2018-11-29T13:38:15.955Z,37.53
2018-11-29T13:40:49.593Z,30.67
2018-11-29T13:43:23.164Z,33.10
2018-11-29T13:45:56.949Z,37.23
2018-11-29T13:48:30.699Z,35.57
2018-11-29T13:51:04.701Z,35.43
2018-11-29T13:53:38.429Z,38.90
2018-11-29T13:56:12.306Z,34.57
2018-11-29T13:58:46.110Z,31.37
2018-11-29T14:01:19.762Z,37.50
2018-11-29T14:03:53.406Z,31.93
2018-11-29T14:06:27.009Z,35.43
2018-11-29T14:09:00.508Z,34.07
2018-11-29T14:11:34.106Z,35.23
2018-11-29T14:14:08.085Z,34.07
2018-11-29T14:16:41.271Z,32.43
2018-11-29T14:19:14.836Z,32.87
2018-11-29T14:21:51.220Z,32.30
2018-11-29T14:24:22.451Z,33.23
2018-11-29T14:26:55.974Z,32.53
2018-11-29T14:29:29.749Z,32.53
2018-11-29T14:32:03.254Z,31.62
2018-11-29T14:34:36.820Z,36.60
2018-11-29T14:37:10.655Z,32.23
2018-11-29T14:39:44.017Z,29.17
2018-11-29T14:42:17.618Z,34.37
2018-11-29T14:44:51.066Z,31.83
2018-11-29T14:47:24.883Z,33.00
2018-11-29T14:49:58.570Z,30.37
2018-11-29T14:52:32.247Z,29.10
2018-11-29T14:57:40.893Z,31.80
2018-11-29T15:00:14.379Z,30.33
2018-11-29T15:02:49.014Z,25.80
2018-11-29T15:05:25.359Z,30.60
2018-11-29T15:07:58.913Z,28.47
2018-11-29T15:10:32.299Z,28.13
2018-11-29T15:13:07.382Z,32.13
2018-11-29T15:15:41.865Z,28.67
2018-11-29T15:18:15.403Z,30.17
2018-11-29T15:20:48.997Z,25.33
2018-11-29T15:23:22.653Z,28.23
2018-11-29T15:25:56.263Z,31.20
2018-11-29T15:28:29.639Z,28.77
2018-11-29T15:31:03.411Z,28.97
2018-11-29T15:33:37.093Z,25.17
2018-11-29T15:36:10.623Z,26.93
2018-11-29T15:38:44.087Z,26.07
2018-11-29T15:41:18.256Z,26.60
2018-11-29T15:43:52.196Z,25.33
2018-11-29T15:46:25.813Z,24.30
2018-11-29T15:49:00.230Z,28.30
2018-11-29T15:51:32.892Z,26.13
2018-11-29T15:54:06.596Z,26.20
2018-11-29T15:56:40.417Z,26.13
2018-11-29T15:59:14.028Z,23.80
2018-11-29T16:01:47.757Z,27.13
2018-11-29T16:04:21.314Z,26.73
2018-11-29T16:06:55.025Z,24.47
2018-11-29T16:09:28.667Z,24.57
2018-11-29T16:12:02.427Z,25.40
2018-11-29T16:14:35.980Z,24.67
2018-11-29T16:17:09.774Z,23.47
2018-11-29T16:19:43.296Z,23.73
2018-11-29T16:22:16.898Z,24.57
2018-11-29T16:24:50.605Z,23.10
2018-11-29T16:27:24.022Z,25.37
2018-11-29T16:29:57.524Z,21.87
2018-11-29T16:32:30.993Z,26.00
2018-11-29T16:35:05.516Z,26.50
2018-11-29T16:37:39.118Z,21.23
2018-11-29T16:40:12.817Z,19.50
2018-11-29T16:42:46.450Z,22.37
2018-11-29T16:45:20.040Z,23.07
2018-11-29T16:47:53.458Z,23.10
2018-11-29T16:50:27.020Z,22.80
2018-11-29T16:53:00.757Z,21.93
2018-11-29T16:55:34.220Z,21.53
2018-11-29T16:58:11.407Z,19.13
2018-11-29T17:00:44.803Z,25.83
2018-11-29T17:03:18.252Z,22.93
2018-11-29T17:05:51.899Z,23.30
2018-11-29T17:08:25.430Z,20.97
2018-11-29T17:10:58.783Z,23.70
2018-11-29T17:13:32.320Z,20.73
2018-11-29T17:16:06.161Z,24.83
2018-11-29T17:18:39.612Z,22.73
2018-11-29T17:21:13.018Z,18.13
2018-11-29T17:23:46.533Z,19.73
2018-11-29T17:26:19.980Z,22.73
2018-11-29T17:28:53.808Z,22.07
2018-11-29T17:31:27.541Z,18.17
2018-11-29T17:34:01.215Z,21.73
2018-11-29T17:36:34.915Z,23.57
2018-11-29T17:39:08.933Z,20.23
2018-11-29T17:41:42.734Z,17.13
2018-11-29T17:44:16.231Z,20.43
2018-11-29T17:46:49.846Z,20.97
2018-11-29T17:49:23.345Z,20.53
2018-11-29T17:51:56.921Z,18.17
2018-11-29T17:54:30.297Z,19.43
2018-11-29T17:57:03.882Z,19.97
2018-11-29T17:59:37.434Z,18.87
2018-11-29T18:02:11.225Z,19.73
2018-11-29T18:04:45.001Z,19.90
2018-11-29T18:07:18.659Z,18.40
2018-11-29T18:09:52.074Z,19.97
2018-11-29T18:12:25.547Z,18.03
2018-11-29T18:14:59.250Z,18.97
2018-11-29T18:17:32.854Z,23.50
2018-11-29T18:20:08.194Z,20.37
2018-11-29T18:22:42.002Z,19.10
2018-11-29T18:25:16.427Z,20.82
2018-11-29T18:27:51.071Z,27.33
2018-11-29T18:30:24.519Z,23.27
2018-11-29T18:32:58.031Z,39.97
2018-11-29T18:35:31.956Z,26.62
2018-11-29T18:38:06.248Z,22.35
2018-11-29T18:40:39.909Z,25.97
2018-11-29T18:43:13.560Z,22.00
2018-11-29T18:45:47.318Z,24.30
2018-11-29T18:48:20.882Z,21.50
2018-11-29T18:50:54.480Z,16.50
2018-11-29T18:53:28.234Z,16.70
2018-11-29T18:56:01.865Z,18.93
2018-11-29T18:58:35.366Z,16.37
2018-11-29T19:01:08.985Z,22.20
2018-11-29T19:03:42.554Z,21.33
2018-11-29T19:06:16.171Z,38.75
2018-11-29T19:08:49.872Z,16.43
2018-11-29T19:11:23.563Z,20.15
2018-11-29T19:13:57.193Z,16.97
2018-11-29T19:16:30.647Z,15.57
2018-11-29T19:19:04.599Z,17.77
2018-11-29T19:21:38.382Z,16.52
2018-11-29T19:24:11.902Z,18.67
2018-11-29T19:26:45.529Z,15.80
2018-11-29T19:29:19.186Z,19.83
2018-11-29T19:31:52.893Z,18.80
2018-11-29T19:34:26.317Z,20.50
2018-11-29T19:36:59.860Z,17.80
2018-11-29T19:39:34.101Z,18.80
2018-11-29T19:42:08.233Z,18.62
2018-11-29T19:44:41.807Z,17.60
2018-11-29T19:47:15.484Z,16.10
2018-11-29T19:49:49.022Z,15.63
2018-11-29T19:52:23.094Z,17.07
2018-11-29T19:54:56.737Z,15.23
2018-11-29T19:57:30.610Z,16.02
2018-11-29T20:00:05.269Z,17.05
2018-11-29T20:02:39.113Z,17.57
2018-11-29T20:05:12.699Z,15.60
2018-11-29T20:07:46.170Z,17.30
2018-11-29T20:10:19.902Z,15.10
2018-11-29T20:12:59.890Z,19.62
2018-11-29T20:15:35.336Z,15.40
2018-11-29T20:18:10.814Z,17.70
2018-11-29T20:20:44.286Z,15.27
2018-11-29T20:23:17.914Z,17.17
2018-11-29T20:25:51.469Z,17.07
2018-11-29T20:28:24.967Z,17.00
2018-11-29T20:30:58.549Z,17.90
2018-11-29T20:33:32.071Z,16.33
2018-11-29T20:36:05.689Z,15.10
2018-11-29T20:38:39.080Z,16.53
2018-11-29T20:41:12.579Z,15.98
2018-11-29T20:43:46.010Z,15.63
2018-11-29T20:46:20.015Z,16.00
2018-11-29T20:48:53.719Z,14.67
2018-11-29T20:51:27.068Z,16.60
2018-11-29T20:54:00.528Z,15.37
2018-11-29T20:56:34.120Z,14.30
2018-11-29T20:59:08.069Z,14.50
2018-11-29T21:01:41.810Z,13.83
2018-11-29T21:04:15.575Z,13.75
2018-11-29T21:06:49.611Z,17.97
2018-11-29T21:09:24.686Z,14.20
2018-11-29T21:11:58.314Z,14.60
2018-11-29T21:14:32.704Z,14.37
2018-11-29T21:17:06.243Z,14.50
2018-11-29T21:19:40.009Z,14.37
2018-11-29T21:22:13.927Z,14.23
2018-11-29T21:24:47.680Z,14.33
2018-11-29T21:27:21.327Z,11.73
2018-11-29T21:29:54.759Z,13.98
2018-11-29T21:32:28.753Z,15.07
2018-11-29T21:35:02.272Z,13.23
2018-11-29T21:37:35.635Z,12.60
2018-11-29T21:40:11.141Z,12.67
2018-11-29T21:42:44.768Z,12.80
2018-11-29T21:45:18.629Z,14.03
2018-11-29T21:47:52.200Z,15.90
2018-11-29T21:50:25.700Z,10.83
2018-11-29T21:52:59.221Z,13.30
2018-11-29T21:55:32.879Z,11.47
2018-11-29T21:58:06.552Z,13.38
2018-11-29T22:00:40.115Z,15.13
2018-11-29T22:03:13.804Z,14.30
2018-11-29T22:05:47.395Z,12.55
2018-11-29T22:08:21.007Z,13.93
2018-11-29T22:10:54.618Z,12.20
2018-11-29T22:13:28.200Z,11.77
2018-11-29T22:16:01.722Z,13.23
2018-11-29T22:18:35.299Z,12.20
2018-11-29T22:21:08.824Z,13.72
2018-11-29T22:23:42.315Z,14.87
2018-11-29T22:26:22.951Z,11.65
2018-11-29T22:28:56.366Z,13.60
2018-11-29T22:31:30.058Z,15.37
2018-11-29T22:34:03.664Z,11.30
2018-11-29T22:36:37.339Z,15.40
2018-11-29T22:39:10.983Z,14.17
2018-11-29T22:41:45.505Z,12.53
2018-11-29T22:44:19.118Z,10.85
2018-11-29T22:46:52.591Z,14.28
2018-11-29T22:49:26.370Z,11.68
2018-11-29T22:51:59.958Z,11.60
2018-11-29T22:54:33.510Z,11.95
2018-11-29T22:57:06.884Z,10.73
2018-11-29T22:59:40.466Z,11.97
2018-11-29T23:02:13.948Z,9.40
2018-11-29T23:04:47.465Z,10.50
2018-11-29T23:07:20.839Z,12.07
2018-11-29T23:09:54.521Z,10.25
2018-11-29T23:12:28.076Z,10.77
2018-11-29T23:15:01.595Z,10.60
2018-11-29T23:17:35.273Z,12.27
2018-11-29T23:20:12.669Z,11.08
2018-11-29T23:22:46.367Z,9.45
2018-11-29T23:25:19.811Z,10.05
2018-11-29T23:27:53.223Z,8.40
2018-11-29T23:30:26.798Z,8.98
2018-11-29T23:33:00.435Z,13.38
2018-11-29T23:35:33.862Z,9.23
2018-11-29T23:38:07.367Z,11.50
2018-11-29T23:40:40.961Z,9.20
2018-11-29T23:43:14.441Z,8.00
2018-11-29T23:45:48.194Z,9.05
2018-11-29T23:48:21.697Z,8.13
2018-11-29T23:50:55.263Z,8.83
2018-11-29T23:53:28.881Z,8.13
2018-11-29T23:56:02.553Z,11.22
2018-11-29T23:58:36.054Z,10.32
